Terminal Aerodrome Forecast
Issued by NWS

Home | Current Version | Previous Version | Text Only | Print | Product List | Glossary On
Versions: 1 2 3 4 5 6 7 8 9 10 11 12 13 14 15 16
000
FTUS42 KTAE 281721
TAFABY
TAF
KABY 281721Z 2818/2918 27006KT P6SM BKN040
     FM290600 23003KT P6SM OVC100
     FM291200 25007KT P6SM OVC050=

USA.gov is the U.S. government's official web portal to all federal, state and local government web resources and services.